sensor_id;sensor_type;location;lat;lon;timestamp;P1;durP1;ratioP1;P2;durP2;ratioP2
47659;SDS011;33403;43.608;1.458;2023-05-10T00:00:57;15.57;;;3.58;;
47659;SDS011;33403;43.608;1.458;2023-05-10T00:03:22;18.08;;;4.22;;
47659;SDS011;33403;43.608;1.458;2023-05-10T00:05:48;12.50;;;3.33;;
47659;SDS011;33403;43.608;1.458;2023-05-10T00:08:14;12.68;;;3.58;;
47659;SDS011;33403;43.608;1.458;2023-05-10T00:10:39;14.32;;;3.90;;
47659;SDS011;33403;43.608;1.458;2023-05-10T00:13:05;17.02;;;3.97;;
47659;SDS011;33403;43.608;1.458;2023-05-10T00:15:31;16.65;;;4.10;;
47659;SDS011;33403;43.608;1.458;2023-05-10T00:17:57;14.98;;;4.10;;
47659;SDS011;33403;43.608;1.458;2023-05-10T00:20:23;14.00;;;3.78;;
47659;SDS011;33403;43.608;1.458;2023-05-10T00:22:48;19.55;;;4.40;;
47659;SDS011;33403;43.608;1.458;2023-05-10T00:25:14;13.18;;;4.03;;
47659;SDS011;33403;43.608;1.458;2023-05-10T00:27:40;14.95;;;4.10;;
47659;SDS011;33403;43.608;1.458;2023-05-10T00:30:05;15.77;;;3.90;;
47659;SDS011;33403;43.608;1.458;2023-05-10T00:32:32;10.07;;;3.70;;
47659;SDS011;33403;43.608;1.458;2023-05-10T00:34:57;18.65;;;4.05;;
47659;SDS011;33403;43.608;1.458;2023-05-10T00:37:23;10.30;;;3.70;;
47659;SDS011;33403;43.608;1.458;2023-05-10T00:39:49;14.85;;;4.18;;
47659;SDS011;33403;43.608;1.458;2023-05-10T00:42:15;14.27;;;3.80;;
47659;SDS011;33403;43.608;1.458;2023-05-10T00:44:40;13.75;;;4.03;;
47659;SDS011;33403;43.608;1.458;2023-05-10T00:47:06;20.95;;;4.63;;
47659;SDS011;33403;43.608;1.458;2023-05-10T00:49:32;13.32;;;3.75;;
47659;SDS011;33403;43.608;1.458;2023-05-10T00:51:59;17.58;;;4.30;;
47659;SDS011;33403;43.608;1.458;2023-05-10T00:54:25;15.25;;;3.70;;
47659;SDS011;33403;43.608;1.458;2023-05-10T00:56:51;16.88;;;4.43;;
47659;SDS011;33403;43.608;1.458;2023-05-10T00:59:17;23.02;;;4.18;;
47659;SDS011;33403;43.608;1.458;2023-05-10T01:01:46;12.75;;;3.78;;
47659;SDS011;33403;43.608;1.458;2023-05-10T01:04:12;17.95;;;4.25;;
47659;SDS011;33403;43.608;1.458;2023-05-10T01:06:42;14.73;;;4.30;;
47659;SDS011;33403;43.608;1.458;2023-05-10T01:09:08;13.90;;;3.97;;
47659;SDS011;33403;43.608;1.458;2023-05-10T01:11:35;18.67;;;4.05;;
47659;SDS011;33403;43.608;1.458;2023-05-10T01:14:02;14.57;;;4.03;;
47659;SDS011;33403;43.608;1.458;2023-05-10T01:16:29;18.63;;;4.55;;
47659;SDS011;33403;43.608;1.458;2023-05-10T01:18:58;12.88;;;3.75;;
47659;SDS011;33403;43.608;1.458;2023-05-10T01:34:52;16.40;;;3.88;;
47659;SDS011;33403;43.608;1.458;2023-05-10T01:38:11;11.63;;;3.25;;
47659;SDS011;33403;43.608;1.458;2023-05-10T01:40:37;15.65;;;3.95;;
47659;SDS011;33403;43.608;1.458;2023-05-10T01:43:19;14.13;;;3.72;;
47659;SDS011;33403;43.608;1.458;2023-05-10T01:46:00;16.80;;;3.70;;
47659;SDS011;33403;43.608;1.458;2023-05-10T01:48:35;10.40;;;3.72;;
47659;SDS011;33403;43.608;1.458;2023-05-10T01:51:05;14.32;;;3.38;;
47659;SDS011;33403;43.608;1.458;2023-05-10T01:53:32;11.23;;;3.30;;
47659;SDS011;33403;43.608;1.458;2023-05-10T01:56:00;14.85;;;3.40;;
47659;SDS011;33403;43.608;1.458;2023-05-10T01:58:28;18.75;;;3.90;;
47659;SDS011;33403;43.608;1.458;2023-05-10T02:00:57;17.17;;;3.58;;
47659;SDS011;33403;43.608;1.458;2023-05-10T02:03:25;17.50;;;3.90;;
47659;SDS011;33403;43.608;1.458;2023-05-10T02:05:53;15.90;;;3.60;;
47659;SDS011;33403;43.608;1.458;2023-05-10T02:08:20;16.85;;;3.75;;
47659;SDS011;33403;43.608;1.458;2023-05-10T02:10:47;17.38;;;3.72;;
47659;SDS011;33403;43.608;1.458;2023-05-10T02:13:17;11.25;;;3.47;;
47659;SDS011;33403;43.608;1.458;2023-05-10T02:15:43;17.58;;;3.58;;
47659;SDS011;33403;43.608;1.458;2023-05-10T02:18:12;16.45;;;3.80;;
47659;SDS011;33403;43.608;1.458;2023-05-10T02:20:40;17.45;;;3.65;;
47659;SDS011;33403;43.608;1.458;2023-05-10T02:23:07;14.52;;;3.58;;
47659;SDS011;33403;43.608;1.458;2023-05-10T02:25:34;14.10;;;4.13;;
47659;SDS011;33403;43.608;1.458;2023-05-10T02:28:02;10.93;;;2.90;;
47659;SDS011;33403;43.608;1.458;2023-05-10T02:30:31;15.15;;;3.88;;
47659;SDS011;33403;43.608;1.458;2023-05-10T02:32:58;14.85;;;3.38;;
47659;SDS011;33403;43.608;1.458;2023-05-10T02:35:24;13.82;;;3.28;;
47659;SDS011;33403;43.608;1.458;2023-05-10T02:37:51;12.73;;;3.53;;
47659;SDS011;33403;43.608;1.458;2023-05-10T02:40:18;15.18;;;3.95;;
47659;SDS011;33403;43.608;1.458;2023-05-10T02:42:47;11.73;;;3.40;;
47659;SDS011;33403;43.608;1.458;2023-05-10T02:45:14;17.63;;;4.20;;
47659;SDS011;33403;43.608;1.458;2023-05-10T02:47:43;18.20;;;3.63;;
47659;SDS011;33403;43.608;1.458;2023-05-10T02:50:09;12.10;;;3.38;;
47659;SDS011;33403;43.608;1.458;2023-05-10T02:52:46;18.90;;;3.60;;
47659;SDS011;33403;43.608;1.458;2023-05-10T02:55:14;13.75;;;3.53;;
47659;SDS011;33403;43.608;1.458;2023-05-10T02:57:43;14.85;;;3.80;;
47659;SDS011;33403;43.608;1.458;2023-05-10T03:00:15;17.15;;;3.08;;
47659;SDS011;33403;43.608;1.458;2023-05-10T03:02:41;18.13;;;3.60;;
47659;SDS011;33403;43.608;1.458;2023-05-10T03:05:07;16.90;;;3.65;;
47659;SDS011;33403;43.608;1.458;2023-05-10T03:07:33;15.98;;;3.50;;
47659;SDS011;33403;43.608;1.458;2023-05-10T03:09:59;15.32;;;3.58;;
47659;SDS011;33403;43.608;1.458;2023-05-10T03:17:52;15.23;;;3.40;;
47659;SDS011;33403;43.608;1.458;2023-05-10T03:20:35;10.35;;;2.53;;
47659;SDS011;33403;43.608;1.458;2023-05-10T03:23:12;8.90;;;2.65;;
47659;SDS011;33403;43.608;1.458;2023-05-10T03:25:51;9.95;;;2.63;;
47659;SDS011;33403;43.608;1.458;2023-05-10T03:28:17;11.23;;;3.05;;
47659;SDS011;33403;43.608;1.458;2023-05-10T03:30:45;7.78;;;2.60;;
47659;SDS011;33403;43.608;1.458;2023-05-10T03:33:11;10.02;;;2.40;;
47659;SDS011;33403;43.608;1.458;2023-05-10T03:35:38;10.20;;;2.47;;
47659;SDS011;33403;43.608;1.458;2023-05-10T03:38:04;9.43;;;2.55;;
47659;SDS011;33403;43.608;1.458;2023-05-10T03:40:29;8.38;;;2.50;;
47659;SDS011;33403;43.608;1.458;2023-05-10T03:42:57;9.07;;;2.40;;
47659;SDS011;33403;43.608;1.458;2023-05-10T03:45:23;10.07;;;2.20;;
47659;SDS011;33403;43.608;1.458;2023-05-10T03:47:49;10.18;;;2.50;;
47659;SDS011;33403;43.608;1.458;2023-05-10T03:50:14;7.80;;;2.78;;
47659;SDS011;33403;43.608;1.458;2023-05-10T03:52:40;9.10;;;2.35;;
47659;SDS011;33403;43.608;1.458;2023-05-10T03:55:06;13.32;;;3.08;;
47659;SDS011;33403;43.608;1.458;2023-05-10T03:57:32;8.55;;;2.47;;
47659;SDS011;33403;43.608;1.458;2023-05-10T03:59:58;10.27;;;2.80;;
47659;SDS011;33403;43.608;1.458;2023-05-10T04:02:24;9.70;;;2.42;;
47659;SDS011;33403;43.608;1.458;2023-05-10T04:04:50;9.43;;;2.30;;
47659;SDS011;33403;43.608;1.458;2023-05-10T04:07:16;11.55;;;2.78;;
47659;SDS011;33403;43.608;1.458;2023-05-10T04:09:41;16.58;;;2.95;;
47659;SDS011;33403;43.608;1.458;2023-05-10T04:12:07;12.05;;;2.85;;
47659;SDS011;33403;43.608;1.458;2023-05-10T04:14:33;14.65;;;2.70;;
47659;SDS011;33403;43.608;1.458;2023-05-10T04:16:58;10.68;;;2.80;;
47659;SDS011;33403;43.608;1.458;2023-05-10T04:19:24;11.98;;;2.70;;
47659;SDS011;33403;43.608;1.458;2023-05-10T04:21:54;12.45;;;2.60;;
47659;SDS011;33403;43.608;1.458;2023-05-10T04:24:20;10.93;;;2.92;;
47659;SDS011;33403;43.608;1.458;2023-05-10T04:26:45;10.95;;;2.55;;
47659;SDS011;33403;43.608;1.458;2023-05-10T04:29:11;10.82;;;2.70;;
47659;SDS011;33403;43.608;1.458;2023-05-10T04:31:37;10.52;;;2.50;;
47659;SDS011;33403;43.608;1.458;2023-05-10T04:34:02;9.68;;;2.60;;
47659;SDS011;33403;43.608;1.458;2023-05-10T04:36:28;10.82;;;2.63;;
47659;SDS011;33403;43.608;1.458;2023-05-10T04:38:54;10.90;;;3.03;;
47659;SDS011;33403;43.608;1.458;2023-05-10T04:41:19;11.60;;;3.72;;
47659;SDS011;33403;43.608;1.458;2023-05-10T04:43:45;9.40;;;2.95;;
47659;SDS011;33403;43.608;1.458;2023-05-10T04:46:11;12.57;;;3.25;;
47659;SDS011;33403;43.608;1.458;2023-05-10T04:48:37;11.90;;;2.58;;
47659;SDS011;33403;43.608;1.458;2023-05-10T04:51:03;11.38;;;2.70;;
47659;SDS011;33403;43.608;1.458;2023-05-10T04:53:29;12.05;;;2.90;;
47659;SDS011;33403;43.608;1.458;2023-05-10T04:55:55;11.02;;;2.60;;
47659;SDS011;33403;43.608;1.458;2023-05-10T04:58:20;9.32;;;2.60;;
47659;SDS011;33403;43.608;1.458;2023-05-10T05:00:46;11.27;;;2.60;;
47659;SDS011;33403;43.608;1.458;2023-05-10T05:03:12;13.65;;;2.97;;
47659;SDS011;33403;43.608;1.458;2023-05-10T05:05:37;14.90;;;2.97;;
47659;SDS011;33403;43.608;1.458;2023-05-10T05:08:03;10.15;;;2.70;;
47659;SDS011;33403;43.608;1.458;2023-05-10T05:10:29;10.77;;;3.42;;
47659;SDS011;33403;43.608;1.458;2023-05-10T05:12:55;10.52;;;3.20;;
47659;SDS011;33403;43.608;1.458;2023-05-10T05:15:20;9.35;;;2.72;;
47659;SDS011;33403;43.608;1.458;2023-05-10T05:17:46;10.43;;;2.83;;
47659;SDS011;33403;43.608;1.458;2023-05-10T05:20:12;13.30;;;3.10;;
47659;SDS011;33403;43.608;1.458;2023-05-10T05:22:38;15.13;;;2.80;;
47659;SDS011;33403;43.608;1.458;2023-05-10T05:25:03;8.68;;;2.80;;
47659;SDS011;33403;43.608;1.458;2023-05-10T05:27:30;10.27;;;2.90;;
47659;SDS011;33403;43.608;1.458;2023-05-10T05:29:56;12.18;;;3.35;;
47659;SDS011;33403;43.608;1.458;2023-05-10T05:32:23;10.07;;;3.20;;
47659;SDS011;33403;43.608;1.458;2023-05-10T05:34:49;11.75;;;2.85;;
47659;SDS011;33403;43.608;1.458;2023-05-10T05:37:15;15.90;;;3.10;;
47659;SDS011;33403;43.608;1.458;2023-05-10T05:39:42;10.55;;;3.15;;
47659;SDS011;33403;43.608;1.458;2023-05-10T05:42:09;14.50;;;3.38;;
47659;SDS011;33403;43.608;1.458;2023-05-10T05:44:35;13.90;;;3.65;;
47659;SDS011;33403;43.608;1.458;2023-05-10T05:47:01;13.23;;;3.25;;
47659;SDS011;33403;43.608;1.458;2023-05-10T05:49:26;14.73;;;3.13;;
47659;SDS011;33403;43.608;1.458;2023-05-10T05:51:52;11.60;;;2.90;;
47659;SDS011;33403;43.608;1.458;2023-05-10T05:54:18;12.95;;;3.22;;
47659;SDS011;33403;43.608;1.458;2023-05-10T05:56:44;16.33;;;3.45;;
47659;SDS011;33403;43.608;1.458;2023-05-10T05:59:12;18.27;;;3.13;;
47659;SDS011;33403;43.608;1.458;2023-05-10T06:01:38;9.05;;;2.78;;
47659;SDS011;33403;43.608;1.458;2023-05-10T06:04:04;11.15;;;3.15;;
47659;SDS011;33403;43.608;1.458;2023-05-10T06:06:29;14.77;;;3.60;;
47659;SDS011;33403;43.608;1.458;2023-05-10T06:08:55;11.40;;;3.17;;
47659;SDS011;33403;43.608;1.458;2023-05-10T06:11:21;12.07;;;3.40;;
47659;SDS011;33403;43.608;1.458;2023-05-10T06:13:47;9.45;;;2.78;;
47659;SDS011;33403;43.608;1.458;2023-05-10T06:16:12;12.25;;;3.05;;
47659;SDS011;33403;43.608;1.458;2023-05-10T06:18:38;12.45;;;3.20;;
47659;SDS011;33403;43.608;1.458;2023-05-10T06:21:04;14.00;;;3.58;;
47659;SDS011;33403;43.608;1.458;2023-05-10T06:23:30;11.27;;;3.30;;
47659;SDS011;33403;43.608;1.458;2023-05-10T06:25:55;11.80;;;3.28;;
47659;SDS011;33403;43.608;1.458;2023-05-10T06:28:21;11.10;;;3.05;;
47659;SDS011;33403;43.608;1.458;2023-05-10T06:30:46;12.70;;;2.88;;
47659;SDS011;33403;43.608;1.458;2023-05-10T06:33:12;14.50;;;3.00;;
47659;SDS011;33403;43.608;1.458;2023-05-10T06:35:38;13.43;;;3.38;;
47659;SDS011;33403;43.608;1.458;2023-05-10T06:38:04;10.20;;;3.03;;
47659;SDS011;33403;43.608;1.458;2023-05-10T06:40:30;12.65;;;3.30;;
47659;SDS011;33403;43.608;1.458;2023-05-10T06:42:55;14.32;;;3.08;;
47659;SDS011;33403;43.608;1.458;2023-05-10T06:45:21;10.60;;;3.00;;
47659;SDS011;33403;43.608;1.458;2023-05-10T06:47:47;13.35;;;2.95;;
47659;SDS011;33403;43.608;1.458;2023-05-10T06:50:12;14.52;;;3.00;;
47659;SDS011;33403;43.608;1.458;2023-05-10T06:52:38;14.50;;;2.88;;
47659;SDS011;33403;43.608;1.458;2023-05-10T06:55:04;15.40;;;3.00;;
47659;SDS011;33403;43.608;1.458;2023-05-10T06:57:30;11.70;;;3.00;;
47659;SDS011;33403;43.608;1.458;2023-05-10T06:59:57;9.30;;;2.55;;
47659;SDS011;33403;43.608;1.458;2023-05-10T07:02:23;10.40;;;2.38;;
47659;SDS011;33403;43.608;1.458;2023-05-10T07:04:49;16.13;;;3.53;;
47659;SDS011;33403;43.608;1.458;2023-05-10T07:07:16;11.90;;;3.00;;
47659;SDS011;33403;43.608;1.458;2023-05-10T07:09:42;14.38;;;3.20;;
47659;SDS011;33403;43.608;1.458;2023-05-10T07:12:08;11.73;;;3.00;;
47659;SDS011;33403;43.608;1.458;2023-05-10T07:14:33;11.55;;;2.92;;
47659;SDS011;33403;43.608;1.458;2023-05-10T07:16:59;11.57;;;2.83;;
47659;SDS011;33403;43.608;1.458;2023-05-10T07:19:24;14.35;;;2.85;;
47659;SDS011;33403;43.608;1.458;2023-05-10T07:21:50;13.23;;;3.08;;
47659;SDS011;33403;43.608;1.458;2023-05-10T07:24:16;13.23;;;3.03;;
47659;SDS011;33403;43.608;1.458;2023-05-10T07:26:42;14.75;;;3.25;;
47659;SDS011;33403;43.608;1.458;2023-05-10T07:29:07;11.40;;;3.00;;
47659;SDS011;33403;43.608;1.458;2023-05-10T07:31:33;14.52;;;2.78;;
47659;SDS011;33403;43.608;1.458;2023-05-10T07:33:59;15.25;;;3.20;;
47659;SDS011;33403;43.608;1.458;2023-05-10T07:36:24;13.70;;;2.72;;
47659;SDS011;33403;43.608;1.458;2023-05-10T07:38:50;13.25;;;2.83;;
47659;SDS011;33403;43.608;1.458;2023-05-10T07:41:16;9.85;;;3.22;;
47659;SDS011;33403;43.608;1.458;2023-05-10T07:43:41;11.98;;;2.70;;
47659;SDS011;33403;43.608;1.458;2023-05-10T07:46:07;11.77;;;2.85;;
47659;SDS011;33403;43.608;1.458;2023-05-10T07:48:36;14.63;;;3.05;;
47659;SDS011;33403;43.608;1.458;2023-05-10T07:51:02;21.52;;;3.25;;
47659;SDS011;33403;43.608;1.458;2023-05-10T07:53:27;16.35;;;2.85;;
47659;SDS011;33403;43.608;1.458;2023-05-10T07:55:54;11.50;;;2.75;;
47659;SDS011;33403;43.608;1.458;2023-05-10T07:58:23;15.75;;;2.85;;
47659;SDS011;33403;43.608;1.458;2023-05-10T08:00:49;14.60;;;3.00;;
47659;SDS011;33403;43.608;1.458;2023-05-10T08:03:15;11.50;;;2.75;;
47659;SDS011;33403;43.608;1.458;2023-05-10T08:05:40;14.25;;;2.78;;
47659;SDS011;33403;43.608;1.458;2023-05-10T08:08:06;9.50;;;2.38;;
47659;SDS011;33403;43.608;1.458;2023-05-10T08:10:32;11.88;;;2.50;;
47659;SDS011;33403;43.608;1.458;2023-05-10T08:12:57;10.10;;;2.42;;
47659;SDS011;33403;43.608;1.458;2023-05-10T08:15:23;10.68;;;2.85;;
47659;SDS011;33403;43.608;1.458;2023-05-10T08:17:50;11.20;;;3.20;;
47659;SDS011;33403;43.608;1.458;2023-05-10T08:20:16;11.00;;;2.40;;
47659;SDS011;33403;43.608;1.458;2023-05-10T08:22:44;9.93;;;2.45;;
47659;SDS011;33403;43.608;1.458;2023-05-10T08:25:10;11.57;;;2.40;;
47659;SDS011;33403;43.608;1.458;2023-05-10T08:27:36;14.95;;;2.85;;
47659;SDS011;33403;43.608;1.458;2023-05-10T08:30:02;13.07;;;3.13;;
47659;SDS011;33403;43.608;1.458;2023-05-10T08:32:28;11.07;;;2.58;;
47659;SDS011;33403;43.608;1.458;2023-05-10T08:34:53;12.13;;;2.50;;
47659;SDS011;33403;43.608;1.458;2023-05-10T08:37:19;10.43;;;2.85;;
47659;SDS011;33403;43.608;1.458;2023-05-10T08:39:45;12.27;;;2.70;;
47659;SDS011;33403;43.608;1.458;2023-05-10T08:42:12;12.02;;;2.40;;
47659;SDS011;33403;43.608;1.458;2023-05-10T08:44:45;13.50;;;3.22;;
47659;SDS011;33403;43.608;1.458;2023-05-10T08:47:16;12.30;;;2.40;;
47659;SDS011;33403;43.608;1.458;2023-05-10T08:49:44;10.50;;;2.60;;
47659;SDS011;33403;43.608;1.458;2023-05-10T08:52:15;12.50;;;2.90;;
47659;SDS011;33403;43.608;1.458;2023-05-10T08:54:42;8.68;;;2.08;;
47659;SDS011;33403;43.608;1.458;2023-05-10T08:57:08;9.48;;;2.47;;
47659;SDS011;33403;43.608;1.458;2023-05-10T08:59:36;9.32;;;2.17;;
47659;SDS011;33403;43.608;1.458;2023-05-10T09:02:04;16.30;;;2.60;;
47659;SDS011;33403;43.608;1.458;2023-05-10T09:04:30;12.50;;;2.80;;
47659;SDS011;33403;43.608;1.458;2023-05-10T09:06:56;9.30;;;2.50;;
47659;SDS011;33403;43.608;1.458;2023-05-10T09:09:22;16.58;;;2.80;;
47659;SDS011;33403;43.608;1.458;2023-05-10T09:11:50;8.90;;;2.35;;
47659;SDS011;33403;43.608;1.458;2023-05-10T09:14:17;8.18;;;2.25;;
47659;SDS011;33403;43.608;1.458;2023-05-10T09:16:44;12.45;;;2.75;;
47659;SDS011;33403;43.608;1.458;2023-05-10T09:19:10;14.80;;;2.95;;
47659;SDS011;33403;43.608;1.458;2023-05-10T09:21:36;16.23;;;2.60;;
47659;SDS011;33403;43.608;1.458;2023-05-10T09:24:05;8.18;;;2.08;;
47659;SDS011;33403;43.608;1.458;2023-05-10T09:26:32;10.77;;;2.50;;
47659;SDS011;33403;43.608;1.458;2023-05-10T09:28:58;16.20;;;2.97;;
47659;SDS011;33403;43.608;1.458;2023-05-10T09:31:43;11.32;;;2.50;;
47659;SDS011;33403;43.608;1.458;2023-05-10T09:34:11;9.15;;;1.95;;
47659;SDS011;33403;43.608;1.458;2023-05-10T09:36:53;8.80;;;1.83;;
47659;SDS011;33403;43.608;1.458;2023-05-10T09:39:29;7.35;;;2.10;;
47659;SDS011;33403;43.608;1.458;2023-05-10T09:41:57;8.85;;;2.40;;
47659;SDS011;33403;43.608;1.458;2023-05-10T09:44:25;9.02;;;1.95;;
47659;SDS011;33403;43.608;1.458;2023-05-10T09:46:51;11.10;;;2.10;;
47659;SDS011;33403;43.608;1.458;2023-05-10T09:49:18;9.07;;;2.15;;
47659;SDS011;33403;43.608;1.458;2023-05-10T09:51:45;8.40;;;2.13;;
47659;SDS011;33403;43.608;1.458;2023-05-10T09:54:11;6.70;;;1.70;;
47659;SDS011;33403;43.608;1.458;2023-05-10T09:56:38;9.70;;;2.47;;
47659;SDS011;33403;43.608;1.458;2023-05-10T09:59:05;11.02;;;2.15;;
47659;SDS011;33403;43.608;1.458;2023-05-10T10:01:32;10.52;;;1.98;;
47659;SDS011;33403;43.608;1.458;2023-05-10T10:03:59;7.43;;;2.20;;
47659;SDS011;33403;43.608;1.458;2023-05-10T10:06:34;20.67;;;5.45;;
47659;SDS011;33403;43.608;1.458;2023-05-10T10:09:04;20.65;;;4.75;;
47659;SDS011;33403;43.608;1.458;2023-05-10T10:11:31;10.68;;;2.80;;
47659;SDS011;33403;43.608;1.458;2023-05-10T10:13:58;10.93;;;2.30;;
47659;SDS011;33403;43.608;1.458;2023-05-10T10:16:24;7.30;;;1.98;;
47659;SDS011;33403;43.608;1.458;2023-05-10T10:18:51;12.65;;;2.10;;
47659;SDS011;33403;43.608;1.458;2023-05-10T10:21:17;8.32;;;1.90;;
47659;SDS011;33403;43.608;1.458;2023-05-10T10:23:44;7.25;;;1.80;;
47659;SDS011;33403;43.608;1.458;2023-05-10T10:26:10;7.63;;;1.85;;
47659;SDS011;33403;43.608;1.458;2023-05-10T10:31:45;8.35;;;1.70;;
47659;SDS011;33403;43.608;1.458;2023-05-10T10:36:56;8.18;;;1.90;;
47659;SDS011;33403;43.608;1.458;2023-05-10T10:39:23;3.95;;;1.60;;
47659;SDS011;33403;43.608;1.458;2023-05-10T10:41:53;7.25;;;2.13;;
47659;SDS011;33403;43.608;1.458;2023-05-10T10:49:50;4.10;;;1.67;;
47659;SDS011;33403;43.608;1.458;2023-05-10T10:52:35;4.57;;;1.67;;
47659;SDS011;33403;43.608;1.458;2023-05-10T10:55:18;5.50;;;1.70;;
47659;SDS011;33403;43.608;1.458;2023-05-10T11:00:32;10.02;;;1.80;;
47659;SDS011;33403;43.608;1.458;2023-05-10T11:05:34;6.88;;;1.90;;
47659;SDS011;33403;43.608;1.458;2023-05-10T11:08:14;9.60;;;2.22;;
47659;SDS011;33403;43.608;1.458;2023-05-10T11:10:52;14.45;;;2.50;;
47659;SDS011;33403;43.608;1.458;2023-05-10T11:15:58;8.57;;;2.25;;
47659;SDS011;33403;43.608;1.458;2023-05-10T11:18:36;6.40;;;2.20;;
47659;SDS011;33403;43.608;1.458;2023-05-10T11:21:02;10.95;;;2.65;;
47659;SDS011;33403;43.608;1.458;2023-05-10T11:23:47;6.97;;;1.95;;
47659;SDS011;33403;43.608;1.458;2023-05-10T11:26:14;7.75;;;2.15;;
47659;SDS011;33403;43.608;1.458;2023-05-10T11:28:44;8.50;;;2.03;;
47659;SDS011;33403;43.608;1.458;2023-05-10T11:31:13;11.70;;;2.28;;
47659;SDS011;33403;43.608;1.458;2023-05-10T11:33:43;10.07;;;2.17;;
47659;SDS011;33403;43.608;1.458;2023-05-10T11:36:46;8.18;;;2.13;;
47659;SDS011;33403;43.608;1.458;2023-05-10T11:39:05;8.35;;;2.60;;
47659;SDS011;33403;43.608;1.458;2023-05-10T11:41:31;6.30;;;1.85;;
47659;SDS011;33403;43.608;1.458;2023-05-10T11:43:57;9.15;;;2.40;;
47659;SDS011;33403;43.608;1.458;2023-05-10T11:46:26;8.45;;;2.00;;
47659;SDS011;33403;43.608;1.458;2023-05-10T11:48:54;8.07;;;1.92;;
47659;SDS011;33403;43.608;1.458;2023-05-10T11:51:26;5.50;;;1.80;;
47659;SDS011;33403;43.608;1.458;2023-05-10T11:53:53;7.13;;;2.00;;
47659;SDS011;33403;43.608;1.458;2023-05-10T11:56:19;6.45;;;2.05;;
47659;SDS011;33403;43.608;1.458;2023-05-10T11:58:47;7.72;;;2.42;;
47659;SDS011;33403;43.608;1.458;2023-05-10T12:01:18;4.07;;;1.33;;
47659;SDS011;33403;43.608;1.458;2023-05-10T12:03:44;6.93;;;1.80;;
47659;SDS011;33403;43.608;1.458;2023-05-10T12:06:10;4.68;;;1.55;;
47659;SDS011;33403;43.608;1.458;2023-05-10T12:08:36;5.97;;;1.80;;
47659;SDS011;33403;43.608;1.458;2023-05-10T12:11:08;6.05;;;1.38;;
47659;SDS011;33403;43.608;1.458;2023-05-10T12:13:38;5.22;;;1.20;;
47659;SDS011;33403;43.608;1.458;2023-05-10T12:16:18;5.75;;;1.58;;
47659;SDS011;33403;43.608;1.458;2023-05-10T12:18:47;6.47;;;1.67;;
47659;SDS011;33403;43.608;1.458;2023-05-10T12:21:14;6.25;;;1.40;;
47659;SDS011;33403;43.608;1.458;2023-05-10T12:23:40;4.40;;;1.73;;
47659;SDS011;33403;43.608;1.458;2023-05-10T12:26:09;5.68;;;1.50;;
47659;SDS011;33403;43.608;1.458;2023-05-10T12:28:35;9.07;;;1.90;;
47659;SDS011;33403;43.608;1.458;2023-05-10T12:31:02;3.05;;;1.20;;
47659;SDS011;33403;43.608;1.458;2023-05-10T12:33:35;5.80;;;1.52;;
47659;SDS011;33403;43.608;1.458;2023-05-10T12:36:03;3.80;;;1.40;;
47659;SDS011;33403;43.608;1.458;2023-05-10T12:41:04;6.65;;;1.95;;
47659;SDS011;33403;43.608;1.458;2023-05-10T12:43:32;5.93;;;1.63;;
47659;SDS011;33403;43.608;1.458;2023-05-10T12:46:03;6.68;;;1.83;;
47659;SDS011;33403;43.608;1.458;2023-05-10T12:48:34;6.88;;;1.67;;
47659;SDS011;33403;43.608;1.458;2023-05-10T12:51:01;7.72;;;1.85;;
47659;SDS011;33403;43.608;1.458;2023-05-10T12:53:27;8.23;;;1.88;;
47659;SDS011;33403;43.608;1.458;2023-05-10T12:55:53;5.55;;;1.80;;
47659;SDS011;33403;43.608;1.458;2023-05-10T12:58:18;7.15;;;1.60;;
47659;SDS011;33403;43.608;1.458;2023-05-10T13:00:44;6.05;;;1.40;;
47659;SDS011;33403;43.608;1.458;2023-05-10T13:03:10;5.25;;;1.40;;
47659;SDS011;33403;43.608;1.458;2023-05-10T13:05:36;6.82;;;1.52;;
47659;SDS011;33403;43.608;1.458;2023-05-10T13:08:02;6.28;;;1.50;;
47659;SDS011;33403;43.608;1.458;2023-05-10T13:10:31;4.57;;;1.33;;
47659;SDS011;33403;43.608;1.458;2023-05-10T13:13:00;3.25;;;1.30;;
47659;SDS011;33403;43.608;1.458;2023-05-10T13:15:25;6.18;;;1.73;;
47659;SDS011;33403;43.608;1.458;2023-05-10T13:17:53;6.35;;;1.10;;
47659;SDS011;33403;43.608;1.458;2023-05-10T13:20:19;4.30;;;1.20;;
47659;SDS011;33403;43.608;1.458;2023-05-10T13:22:46;3.97;;;1.20;;
47659;SDS011;33403;43.608;1.458;2023-05-10T13:25:12;3.25;;;1.10;;
47659;SDS011;33403;43.608;1.458;2023-05-10T13:27:38;2.85;;;1.20;;
47659;SDS011;33403;43.608;1.458;2023-05-10T13:30:05;4.07;;;1.30;;
47659;SDS011;33403;43.608;1.458;2023-05-10T13:32:31;5.13;;;1.40;;
47659;SDS011;33403;43.608;1.458;2023-05-10T13:34:58;5.43;;;1.20;;
47659;SDS011;33403;43.608;1.458;2023-05-10T13:37:23;3.95;;;1.17;;
47659;SDS011;33403;43.608;1.458;2023-05-10T13:39:49;3.63;;;1.50;;
47659;SDS011;33403;43.608;1.458;2023-05-10T13:42:15;4.20;;;1.45;;
47659;SDS011;33403;43.608;1.458;2023-05-10T13:44:40;3.53;;;1.20;;
47659;SDS011;33403;43.608;1.458;2023-05-10T13:47:06;4.25;;;1.67;;
47659;SDS011;33403;43.608;1.458;2023-05-10T13:49:32;4.22;;;1.30;;
47659;SDS011;33403;43.608;1.458;2023-05-10T13:51:59;6.97;;;1.25;;
47659;SDS011;33403;43.608;1.458;2023-05-10T13:54:30;5.43;;;1.40;;
47659;SDS011;33403;43.608;1.458;2023-05-10T13:56:56;5.78;;;1.30;;
47659;SDS011;33403;43.608;1.458;2023-05-10T13:59:22;3.60;;;1.23;;
47659;SDS011;33403;43.608;1.458;2023-05-10T14:01:48;3.55;;;1.52;;
47659;SDS011;33403;43.608;1.458;2023-05-10T14:04:13;8.48;;;1.88;;
47659;SDS011;33403;43.608;1.458;2023-05-10T14:06:39;6.95;;;1.80;;
47659;SDS011;33403;43.608;1.458;2023-05-10T14:09:05;5.97;;;1.65;;
47659;SDS011;33403;43.608;1.458;2023-05-10T14:11:30;6.60;;;1.50;;
47659;SDS011;33403;43.608;1.458;2023-05-10T14:13:56;5.15;;;1.60;;
47659;SDS011;33403;43.608;1.458;2023-05-10T14:16:22;5.18;;;1.63;;
47659;SDS011;33403;43.608;1.458;2023-05-10T14:18:47;7.13;;;1.80;;
47659;SDS011;33403;43.608;1.458;2023-05-10T14:21:13;3.28;;;1.33;;
47659;SDS011;33403;43.608;1.458;2023-05-10T14:23:39;6.47;;;1.52;;
47659;SDS011;33403;43.608;1.458;2023-05-10T14:26:05;5.10;;;1.30;;
47659;SDS011;33403;43.608;1.458;2023-05-10T14:28:31;6.18;;;1.50;;
47659;SDS011;33403;43.608;1.458;2023-05-10T14:30:57;2.67;;;1.20;;
47659;SDS011;33403;43.608;1.458;2023-05-10T14:33:22;4.97;;;1.60;;
47659;SDS011;33403;43.608;1.458;2023-05-10T14:35:48;6.38;;;1.60;;
47659;SDS011;33403;43.608;1.458;2023-05-10T14:38:14;8.13;;;1.80;;
47659;SDS011;33403;43.608;1.458;2023-05-10T14:40:40;5.90;;;1.48;;
47659;SDS011;33403;43.608;1.458;2023-05-10T14:43:06;4.47;;;1.70;;
47659;SDS011;33403;43.608;1.458;2023-05-10T14:45:31;5.72;;;1.48;;
47659;SDS011;33403;43.608;1.458;2023-05-10T14:47:57;3.50;;;1.50;;
47659;SDS011;33403;43.608;1.458;2023-05-10T14:50:23;6.40;;;1.60;;
47659;SDS011;33403;43.608;1.458;2023-05-10T14:52:49;5.72;;;1.42;;
47659;SDS011;33403;43.608;1.458;2023-05-10T14:55:15;5.72;;;1.60;;
47659;SDS011;33403;43.608;1.458;2023-05-10T14:57:40;5.25;;;1.58;;
47659;SDS011;33403;43.608;1.458;2023-05-10T15:00:06;4.50;;;1.58;;
47659;SDS011;33403;43.608;1.458;2023-05-10T15:02:33;6.30;;;1.60;;
47659;SDS011;33403;43.608;1.458;2023-05-10T15:04:58;3.97;;;1.50;;
47659;SDS011;33403;43.608;1.458;2023-05-10T15:07:24;5.90;;;1.60;;
47659;SDS011;33403;43.608;1.458;2023-05-10T15:09:50;5.32;;;1.33;;
47659;SDS011;33403;43.608;1.458;2023-05-10T15:12:16;3.10;;;1.15;;
47659;SDS011;33403;43.608;1.458;2023-05-10T15:14:43;3.42;;;1.73;;
47659;SDS011;33403;43.608;1.458;2023-05-10T15:17:08;4.65;;;1.70;;
47659;SDS011;33403;43.608;1.458;2023-05-10T15:19:35;3.80;;;1.50;;
47659;SDS011;33403;43.608;1.458;2023-05-10T15:22:01;5.15;;;1.45;;